createdAt,value
2022-09-07T00:01:46.702Z,3.10
2022-09-07T00:04:13.209Z,3.28
2022-09-07T00:06:39.705Z,3.30
2022-09-07T00:09:06.487Z,3.35
2022-09-07T00:11:32.906Z,3.15
2022-09-07T00:13:59.450Z,2.38
2022-09-07T00:16:28.937Z,2.95
2022-09-07T00:18:59.274Z,2.83
2022-09-07T00:21:26.434Z,2.40
2022-09-07T00:23:53.182Z,2.80
2022-09-07T00:26:25.636Z,2.58
2022-09-07T00:28:53.323Z,2.90
2022-09-07T00:31:22.697Z,2.90
2022-09-07T00:33:51.182Z,2.67
2022-09-07T00:36:19.356Z,2.55
2022-09-07T00:38:45.845Z,2.65
2022-09-07T00:41:13.516Z,2.78
2022-09-07T00:43:49.471Z,2.88
2022-09-07T00:46:21.774Z,3.17
2022-09-07T00:48:51.056Z,3.00
2022-09-07T00:51:35.029Z,3.08
2022-09-07T00:54:08.866Z,3.53
2022-09-07T00:56:39.294Z,3.83
2022-09-07T00:59:06.501Z,3.75
2022-09-07T01:01:34.193Z,3.63
2022-09-07T01:04:02.013Z,3.45
2022-09-07T01:06:34.578Z,3.50
2022-09-07T01:09:10.087Z,3.88
2022-09-07T01:11:37.557Z,3.55
2022-09-07T01:14:11.083Z,3.55
2022-09-07T01:17:06.714Z,3.85
2022-09-07T01:20:16.072Z,3.83
2022-09-07T01:23:07.555Z,3.97
2022-09-07T01:25:37.450Z,3.72
2022-09-07T01:28:11.125Z,4.00
2022-09-07T01:30:39.669Z,4.13
2022-09-07T01:33:11.851Z,4.28
2022-09-07T01:36:15.926Z,4.68
2022-09-07T01:38:45.344Z,5.25
2022-09-07T01:41:27.160Z,4.32
2022-09-07T01:43:57.468Z,4.65
2022-09-07T01:46:29.680Z,5.30
2022-09-07T01:49:04.572Z,4.72
2022-09-07T01:51:34.678Z,4.70
2022-09-07T01:54:10.645Z,5.43
2022-09-07T01:56:42.891Z,5.05
2022-09-07T01:59:58.890Z,4.90
2022-09-07T02:02:31.241Z,5.00
2022-09-07T02:05:32.055Z,4.88
2022-09-07T02:08:19.659Z,5.65
2022-09-07T02:10:51.595Z,4.70
2022-09-07T02:13:33.686Z,4.97
2022-09-07T02:16:05.856Z,4.50
2022-09-07T02:18:46.051Z,4.07
2022-09-07T02:21:17.577Z,4.05
2022-09-07T02:23:50.616Z,3.60
2022-09-07T02:26:21.649Z,3.50
2022-09-07T02:28:48.712Z,3.47
2022-09-07T02:31:15.851Z,3.42
2022-09-07T02:33:42.900Z,3.67
2022-09-07T02:36:11.778Z,3.30
2022-09-07T02:38:38.313Z,3.30
2022-09-07T02:41:05.309Z,3.38
2022-09-07T02:43:32.694Z,3.50
2022-09-07T02:46:11.022Z,3.15
2022-09-07T02:49:05.538Z,3.75
2022-09-07T02:51:48.410Z,3.10
2022-09-07T02:54:26.894Z,3.55
2022-09-07T02:57:11.146Z,3.97
2022-09-07T03:00:00.396Z,4.20
2022-09-07T03:02:36.054Z,4.00
2022-09-07T03:05:12.970Z,4.30
2022-09-07T03:07:46.911Z,4.22
2022-09-07T03:10:15.280Z,4.28
2022-09-07T03:12:48.214Z,4.85
2022-09-07T03:15:18.378Z,5.35
2022-09-07T03:17:45.433Z,4.88
2022-09-07T03:20:12.633Z,5.32
2022-09-07T03:22:39.220Z,6.43
2022-09-07T03:25:06.330Z,5.72
2022-09-07T03:27:33.294Z,6.05
2022-09-07T03:30:00.029Z,6.15
2022-09-07T03:32:32.006Z,6.55
2022-09-07T03:34:58.951Z,6.18
2022-09-07T03:37:25.415Z,6.47
2022-09-07T03:39:52.618Z,6.90
2022-09-07T03:42:19.443Z,7.00
2022-09-07T03:44:46.116Z,7.93
2022-09-07T03:47:12.667Z,8.98
2022-09-07T03:49:39.095Z,9.90
2022-09-07T03:52:05.546Z,11.27
2022-09-07T03:54:35.764Z,12.32
2022-09-07T03:57:04.241Z,11.88
2022-09-07T03:59:30.697Z,11.27
2022-09-07T04:01:57.127Z,13.63
2022-09-07T04:04:23.533Z,11.75
2022-09-07T04:06:50.785Z,11.18
2022-09-07T04:09:17.423Z,11.70
2022-09-07T04:11:43.970Z,11.00
2022-09-07T04:14:11.511Z,11.57
2022-09-07T04:16:38.077Z,9.93
2022-09-07T04:19:04.903Z,10.43
2022-09-07T04:21:33.230Z,10.05
2022-09-07T04:24:00.519Z,10.10
2022-09-07T04:26:29.953Z,9.90
2022-09-07T04:28:56.863Z,10.02
2022-09-07T04:31:24.122Z,11.07
2022-09-07T04:33:51.376Z,10.35
2022-09-07T04:36:19.444Z,11.27
2022-09-07T04:38:46.475Z,10.40
2022-09-07T04:41:15.209Z,10.45
2022-09-07T04:43:43.250Z,10.18
2022-09-07T04:46:21.629Z,10.45
2022-09-07T04:48:53.363Z,10.75
2022-09-07T04:51:21.327Z,11.07
2022-09-07T04:53:49.818Z,11.20
2022-09-07T04:56:17.814Z,9.90
2022-09-07T04:58:45.566Z,10.43
2022-09-07T05:01:14.957Z,10.82
2022-09-07T05:03:42.007Z,11.07
2022-09-07T05:06:09.198Z,10.55
2022-09-07T05:08:41.547Z,10.70
2022-09-07T05:11:09.403Z,10.07
2022-09-07T05:13:36.395Z,11.07
2022-09-07T05:16:10.035Z,10.82
2022-09-07T05:18:36.624Z,10.77
2022-09-07T05:21:15.285Z,9.95
2022-09-07T05:23:42.183Z,10.50
2022-09-07T05:26:09.996Z,10.93
2022-09-07T05:28:38.103Z,10.80
2022-09-07T05:31:18.599Z,10.85
2022-09-07T05:36:41.606Z,10.43
2022-09-07T05:39:08.655Z,10.20
2022-09-07T05:41:35.469Z,10.25
2022-09-07T05:46:48.797Z,10.60
2022-09-07T05:49:15.207Z,10.70
2022-09-07T05:51:41.670Z,10.90
2022-09-07T05:54:08.239Z,11.80
2022-09-07T05:56:37.897Z,11.57
2022-09-07T05:59:06.603Z,12.07
2022-09-07T06:01:35.191Z,11.45
2022-09-07T06:04:01.863Z,10.55
2022-09-07T06:06:28.400Z,11.10
2022-09-07T06:08:54.847Z,11.25
2022-09-07T06:11:23.131Z,12.13
2022-09-07T06:13:50.171Z,10.90
2022-09-07T06:16:18.570Z,11.38
2022-09-07T06:18:46.959Z,11.48
2022-09-07T06:21:22.112Z,11.52
2022-09-07T06:23:49.784Z,11.65
2022-09-07T06:26:17.516Z,11.57
2022-09-07T06:28:49.434Z,10.82
2022-09-07T06:31:20.451Z,11.48
2022-09-07T06:33:48.019Z,11.05
2022-09-07T06:36:17.277Z,11.45
2022-09-07T06:38:44.478Z,10.73
2022-09-07T06:49:26.004Z,10.05
2022-09-07T06:51:52.425Z,10.30
2022-09-07T06:57:08.632Z,11.05
2022-09-07T06:59:35.735Z,10.25
2022-09-07T07:02:02.265Z,10.20
2022-09-07T07:04:28.713Z,10.98
2022-09-07T07:06:55.166Z,11.30
2022-09-07T07:09:21.582Z,11.85
2022-09-07T07:11:48.161Z,10.52
2022-09-07T07:14:15.444Z,11.27
2022-09-07T07:16:42.486Z,12.02
2022-09-07T07:19:09.409Z,11.00
2022-09-07T07:21:55.390Z,11.05
2022-09-07T07:24:22.960Z,10.88
2022-09-07T07:26:49.996Z,11.05
2022-09-07T07:29:18.757Z,11.00
2022-09-07T07:31:46.848Z,11.65
2022-09-07T07:34:13.370Z,10.48
2022-09-07T07:36:39.838Z,11.38
2022-09-07T07:39:06.698Z,10.88
2022-09-07T07:44:20.889Z,10.73
2022-09-07T07:46:51.360Z,10.05
2022-09-07T07:49:17.994Z,11.07
2022-09-07T07:54:33.869Z,10.68
2022-09-07T07:57:00.270Z,10.20
2022-09-07T07:59:26.613Z,11.82
2022-09-07T08:01:53.043Z,10.50
2022-09-07T08:04:19.559Z,11.02
2022-09-07T08:06:45.945Z,10.57
2022-09-07T08:09:12.433Z,11.70
2022-09-07T08:11:40.142Z,11.20
2022-09-07T08:14:08.447Z,10.55
2022-09-07T08:16:35.394Z,11.38
2022-09-07T08:19:02.374Z,11.55
2022-09-07T08:21:28.696Z,11.98
2022-09-07T08:23:55.440Z,11.45
2022-09-07T08:26:21.896Z,10.57
2022-09-07T08:28:48.380Z,12.20
2022-09-07T08:31:16.716Z,12.32
2022-09-07T08:33:43.540Z,11.10
2022-09-07T08:36:15.584Z,10.95
2022-09-07T08:38:42.542Z,10.52
2022-09-07T08:41:36.883Z,10.82
2022-09-07T08:44:11.312Z,11.93
2022-09-07T08:46:44.007Z,10.90
2022-09-07T08:49:18.713Z,11.02
2022-09-07T08:51:56.876Z,11.60
2022-09-07T08:54:23.269Z,11.43
2022-09-07T08:59:46.598Z,10.93
2022-09-07T09:02:35.190Z,10.55
2022-09-07T09:05:20.384Z,11.70
2022-09-07T09:07:58.461Z,11.20
2022-09-07T09:10:33.863Z,11.65
2022-09-07T09:13:04.772Z,11.43
2022-09-07T09:15:51.848Z,10.90
2022-09-07T09:18:36.971Z,11.75
2022-09-07T09:21:06.676Z,11.88
2022-09-07T09:23:39.529Z,11.88
2022-09-07T09:26:14.120Z,10.60
2022-09-07T09:28:40.729Z,9.38
2022-09-07T09:31:16.834Z,10.75
2022-09-07T09:33:43.244Z,11.13
2022-09-07T09:36:25.762Z,11.18
2022-09-07T09:38:52.234Z,10.75
2022-09-07T09:41:18.621Z,10.90
2022-09-07T09:43:51.891Z,10.70
2022-09-07T09:46:35.095Z,11.13
2022-09-07T09:49:17.584Z,10.98
2022-09-07T09:54:41.928Z,11.77
2022-09-07T09:57:38.149Z,11.88
2022-09-07T10:00:10.529Z,11.18
2022-09-07T10:05:30.800Z,10.88
2022-09-07T10:07:57.191Z,12.55
2022-09-07T10:10:26.022Z,13.07
2022-09-07T10:12:54.200Z,12.75
2022-09-07T10:15:32.331Z,9.93
2022-09-07T10:18:04.413Z,11.82
2022-09-07T10:20:38.131Z,10.65
2022-09-07T10:23:06.450Z,9.77
2022-09-07T10:25:41.453Z,11.20
2022-09-07T10:28:12.584Z,12.18
2022-09-07T10:31:14.096Z,10.57
2022-09-07T10:34:28.589Z,11.55
2022-09-07T10:37:08.315Z,11.13
2022-09-07T10:39:42.289Z,9.68
2022-09-07T10:42:35.557Z,11.55
2022-09-07T10:45:23.840Z,9.35
2022-09-07T10:48:20.114Z,7.97
2022-09-07T10:51:12.531Z,9.13
2022-09-07T10:54:31.029Z,10.80
2022-09-07T10:57:11.112Z,10.85
2022-09-07T11:02:42.498Z,9.35
2022-09-07T11:05:35.101Z,8.63
2022-09-07T11:08:16.014Z,10.23
2022-09-07T11:11:17.610Z,9.40
2022-09-07T11:14:11.468Z,7.60
2022-09-07T11:16:54.231Z,9.70
2022-09-07T11:19:42.112Z,9.20
2022-09-07T11:22:31.962Z,7.65
2022-09-07T11:25:31.339Z,8.05
2022-09-07T11:28:07.143Z,8.70
2022-09-07T11:30:40.284Z,8.27
2022-09-07T11:33:15.970Z,8.40
2022-09-07T11:35:55.098Z,7.55
2022-09-07T11:38:29.295Z,6.20
2022-09-07T11:41:15.378Z,4.60
2022-09-07T11:43:46.356Z,4.50
2022-09-07T11:48:48.409Z,5.68
2022-09-07T11:51:19.656Z,4.72
2022-09-07T11:53:51.169Z,5.32
2022-09-07T11:56:36.194Z,4.80
2022-09-07T11:59:28.325Z,4.32
2022-09-07T12:02:13.760Z,4.45
2022-09-07T12:05:12.382Z,3.95
2022-09-07T12:07:50.805Z,3.63
2022-09-07T12:10:26.489Z,3.70
2022-09-07T12:13:17.969Z,5.38
2022-09-07T12:16:00.007Z,4.05
2022-09-07T12:19:04.119Z,3.83
2022-09-07T12:21:52.116Z,3.40
2022-09-07T12:24:38.768Z,3.53
2022-09-07T12:27:06.751Z,2.55
2022-09-07T12:29:33.165Z,2.28
2022-09-07T12:34:53.789Z,2.13
2022-09-07T12:40:29.588Z,2.63
2022-09-07T12:43:14.447Z,2.20
2022-09-07T12:45:40.750Z,2.30
2022-09-07T12:48:16.289Z,2.67
2022-09-07T12:51:06.971Z,2.63
2022-09-07T12:53:56.916Z,2.80
2022-09-07T12:56:33.010Z,2.90
2022-09-07T12:59:02.095Z,3.15
2022-09-07T13:01:34.417Z,3.33
2022-09-07T13:04:09.934Z,3.38
2022-09-07T13:07:13.803Z,2.65
2022-09-07T13:09:41.291Z,3.03
2022-09-07T13:15:42.486Z,3.10
2022-09-07T13:18:30.698Z,2.95
2022-09-07T13:21:18.310Z,2.60
2022-09-07T13:27:43.477Z,2.75
2022-09-07T13:30:16.677Z,2.10
2022-09-07T13:35:31.816Z,1.77
2022-09-07T13:38:01.618Z,2.00
2022-09-07T13:40:33.324Z,1.80
2022-09-07T13:43:02.525Z,1.60
2022-09-07T13:45:58.838Z,1.63
2022-09-07T13:48:35.179Z,1.70
2022-09-07T13:51:09.499Z,1.48
2022-09-07T13:53:54.069Z,1.67
2022-09-07T13:56:38.662Z,1.55
2022-09-07T13:59:19.049Z,1.60
2022-09-07T14:01:47.852Z,1.58
2022-09-07T14:04:21.150Z,1.63
2022-09-07T14:06:47.620Z,1.25
2022-09-07T14:09:13.893Z,1.63
2022-09-07T14:11:49.548Z,1.50
2022-09-07T14:14:23.287Z,1.20
2022-09-07T14:17:04.834Z,1.60
2022-09-07T14:19:48.732Z,1.40
2022-09-07T14:22:35.131Z,1.50
2022-09-07T14:25:04.347Z,1.30
2022-09-07T14:27:34.884Z,1.48
2022-09-07T14:30:20.060Z,1.83
2022-09-07T14:32:48.701Z,1.88
2022-09-07T14:35:21.011Z,1.75
2022-09-07T14:37:48.756Z,1.40
2022-09-07T14:40:20.614Z,1.35
2022-09-07T14:42:49.797Z,0.98
2022-09-07T14:45:22.140Z,1.00
2022-09-07T14:47:52.287Z,0.90
2022-09-07T14:50:21.834Z,1.08
2022-09-07T14:53:34.184Z,1.30
2022-09-07T14:55:39.867Z,0.88
2022-09-07T14:58:09.378Z,0.90
2022-09-07T15:00:36.010Z,0.70
2022-09-07T15:03:32.703Z,1.00
2022-09-07T15:06:01.519Z,0.80
2022-09-07T15:08:45.753Z,0.77
2022-09-07T15:11:36.184Z,0.80
2022-09-07T15:14:20.083Z,0.75
2022-09-07T15:19:50.172Z,0.98
2022-09-07T15:22:18.566Z,0.88
2022-09-07T15:24:51.271Z,1.00
2022-09-07T15:27:20.274Z,0.90
2022-09-07T15:29:46.952Z,0.60
2022-09-07T15:32:15.933Z,1.10
2022-09-07T15:34:43.916Z,0.77
2022-09-07T15:39:56.653Z,0.80
2022-09-07T15:45:11.186Z,0.80
2022-09-07T15:47:54.051Z,0.60
2022-09-07T15:50:23.209Z,0.65
2022-09-07T15:52:50.011Z,0.77
2022-09-07T15:55:17.672Z,0.90
2022-09-07T15:58:02.161Z,1.13
2022-09-07T16:00:30.822Z,0.82
2022-09-07T16:03:06.076Z,0.82
2022-09-07T16:05:33.832Z,0.80
2022-09-07T16:10:53.585Z,0.60
2022-09-07T16:13:23.699Z,0.70
2022-09-07T16:15:50.044Z,0.73
2022-09-07T16:18:18.051Z,0.90
2022-09-07T16:20:45.306Z,1.02
2022-09-07T16:23:14.965Z,0.90
2022-09-07T16:25:43.025Z,0.73
2022-09-07T16:28:09.650Z,1.08
2022-09-07T16:30:39.538Z,0.90
2022-09-07T16:33:06.110Z,0.90
2022-09-07T16:35:32.814Z,0.88
2022-09-07T16:40:46.254Z,0.90
2022-09-07T16:43:12.661Z,0.82
2022-09-07T16:48:25.335Z,0.50
2022-09-07T16:51:00.424Z,0.70
2022-09-07T16:53:29.223Z,0.80
2022-09-07T16:56:05.748Z,0.60
2022-09-07T16:58:37.244Z,0.63
2022-09-07T17:01:06.405Z,0.75
2022-09-07T17:03:33.301Z,0.65
2022-09-07T17:06:00.988Z,0.98
2022-09-07T17:08:27.957Z,0.70
2022-09-07T17:11:02.499Z,0.90
2022-09-07T17:13:31.121Z,0.93
2022-09-07T17:16:06.502Z,1.00
2022-09-07T17:21:23.346Z,0.95
2022-09-07T17:23:55.094Z,2.05
2022-09-07T17:26:26.041Z,0.85
2022-09-07T17:34:11.529Z,0.73
2022-09-07T17:36:40.598Z,0.95
2022-09-07T17:39:16.439Z,0.90
2022-09-07T17:41:47.747Z,1.00
2022-09-07T17:44:14.522Z,1.92
2022-09-07T17:46:40.905Z,0.60
2022-09-07T17:49:12.099Z,0.77
2022-09-07T17:51:38.650Z,0.65
2022-09-07T17:54:10.829Z,0.73
2022-09-07T17:56:39.567Z,0.85
2022-09-07T18:01:53.843Z,0.77
2022-09-07T18:04:20.355Z,0.90
2022-09-07T18:06:46.739Z,0.80
2022-09-07T18:09:13.906Z,0.90
2022-09-07T18:11:48.101Z,0.73
2022-09-07T18:14:16.266Z,0.88
2022-09-07T18:16:45.115Z,1.00
2022-09-07T18:19:12.306Z,1.05
2022-09-07T18:21:42.542Z,1.10
2022-09-07T18:24:18.262Z,1.35
2022-09-07T18:26:53.547Z,0.70
2022-09-07T18:29:37.557Z,0.65
2022-09-07T18:32:09.433Z,1.10
2022-09-07T18:34:38.293Z,1.08
2022-09-07T18:37:05.397Z,0.85
2022-09-07T18:39:33.542Z,0.80
2022-09-07T18:41:59.966Z,1.02
2022-09-07T18:47:21.194Z,1.00
2022-09-07T18:49:49.801Z,0.85
2022-09-07T18:55:02.691Z,0.70
2022-09-07T18:57:29.180Z,0.70
2022-09-07T18:59:55.481Z,0.80
2022-09-07T19:02:22.053Z,0.98
2022-09-07T19:07:34.818Z,0.85
2022-09-07T19:10:04.258Z,1.00
2022-09-07T19:12:30.638Z,1.13
2022-09-07T19:14:56.975Z,1.10
2022-09-07T19:17:24.358Z,0.95
2022-09-07T19:19:52.565Z,2.65
2022-09-07T19:22:19.034Z,2.58
2022-09-07T19:24:45.432Z,1.08
2022-09-07T19:27:11.758Z,0.88
2022-09-07T19:29:38.114Z,0.85
2022-09-07T19:32:04.735Z,0.93
2022-09-07T19:34:31.958Z,1.08
2022-09-07T19:36:58.435Z,1.00
2022-09-07T19:39:24.813Z,0.90
2022-09-07T19:41:51.142Z,0.88
2022-09-07T19:44:17.469Z,0.70
2022-09-07T19:46:44.991Z,0.90
2022-09-07T19:49:12.219Z,0.90
2022-09-07T19:51:39.356Z,1.17
2022-09-07T19:54:06.357Z,0.80
2022-09-07T19:56:32.863Z,0.95
2022-09-07T19:58:59.340Z,1.10
2022-09-07T20:01:25.847Z,0.90
2022-09-07T20:04:04.050Z,0.90
2022-09-07T20:06:34.831Z,0.90
2022-09-07T20:09:01.564Z,0.75
2022-09-07T20:11:31.287Z,1.27
2022-09-07T20:13:57.922Z,1.13
2022-09-07T20:16:25.486Z,1.85
2022-09-07T20:18:52.156Z,2.10
2022-09-07T20:21:23.686Z,1.30
2022-09-07T20:23:50.914Z,0.90
2022-09-07T20:26:20.199Z,0.90
2022-09-07T20:28:46.641Z,0.70
2022-09-07T20:31:15.303Z,0.80
2022-09-07T20:33:43.902Z,0.90
2022-09-07T20:36:12.299Z,1.20
2022-09-07T20:38:43.472Z,1.10
2022-09-07T20:41:14.774Z,0.93
2022-09-07T20:43:41.203Z,1.10
2022-09-07T20:46:09.582Z,1.10
2022-09-07T20:48:39.883Z,1.30
2022-09-07T20:51:09.493Z,1.13
2022-09-07T20:53:36.886Z,1.10
2022-09-07T20:56:06.732Z,1.00
2022-09-07T20:58:34.060Z,0.70
2022-09-07T21:01:00.729Z,0.95
2022-09-07T21:03:27.174Z,0.82
2022-09-07T21:05:54.040Z,0.93
2022-09-07T21:08:20.678Z,1.10
2022-09-07T21:10:47.615Z,1.13
2022-09-07T21:13:14.437Z,1.10
2022-09-07T21:15:42.632Z,1.30
2022-09-07T21:18:14.746Z,1.20
2022-09-07T21:20:49.614Z,0.80
2022-09-07T21:23:24.358Z,0.95
2022-09-07T21:25:50.706Z,1.08
2022-09-07T21:28:17.288Z,1.30
2022-09-07T21:30:43.611Z,1.35
2022-09-07T21:33:10.344Z,1.13
2022-09-07T21:35:36.755Z,1.20
2022-09-07T21:38:03.106Z,1.10
2022-09-07T21:40:29.467Z,1.02
2022-09-07T21:42:55.840Z,1.20
2022-09-07T21:45:22.194Z,0.95
2022-09-07T21:47:48.579Z,1.27
2022-09-07T21:50:15.069Z,1.05
2022-09-07T21:52:41.419Z,1.10
2022-09-07T21:55:08.432Z,0.90
2022-09-07T21:57:34.791Z,1.00
2022-09-07T22:00:01.355Z,0.90
2022-09-07T22:02:27.728Z,1.10
2022-09-07T22:04:54.112Z,0.77
2022-09-07T22:07:20.472Z,1.35
2022-09-07T22:09:49.698Z,0.82
2022-09-07T22:12:16.617Z,0.88
2022-09-07T22:14:43.894Z,0.73
2022-09-07T22:17:10.262Z,1.00
2022-09-07T22:19:37.866Z,1.10
2022-09-07T22:22:04.310Z,1.05
2022-09-07T22:24:30.829Z,1.40
2022-09-07T22:26:57.228Z,1.10
2022-09-07T22:29:23.562Z,1.20
2022-09-07T22:31:49.955Z,1.17
2022-09-07T22:34:16.369Z,1.27
2022-09-07T22:36:44.742Z,1.20
2022-09-07T22:39:16.756Z,1.35
2022-09-07T22:41:45.044Z,1.00
2022-09-07T22:44:14.827Z,1.10
2022-09-07T22:46:43.158Z,1.25
2022-09-07T22:49:12.920Z,1.30
2022-09-07T22:51:39.689Z,0.90
2022-09-07T22:54:06.472Z,0.95
2022-09-07T22:56:33.801Z,1.20
2022-09-07T22:59:03.244Z,1.00
2022-09-07T23:01:31.172Z,1.13
2022-09-07T23:03:57.999Z,1.02
2022-09-07T23:06:28.285Z,1.27
2022-09-07T23:08:56.862Z,1.05
2022-09-07T23:11:24.535Z,0.95
2022-09-07T23:13:53.058Z,1.50
2022-09-07T23:16:20.856Z,1.05
2022-09-07T23:18:48.161Z,0.80
2022-09-07T23:21:15.123Z,0.95
2022-09-07T23:23:41.599Z,1.67
2022-09-07T23:26:08.176Z,1.40
2022-09-07T23:28:34.823Z,1.48
2022-09-07T23:31:01.339Z,1.58
2022-09-07T23:33:28.046Z,1.50
2022-09-07T23:36:05.879Z,1.02
2022-09-07T23:38:32.927Z,1.50
2022-09-07T23:41:00.187Z,1.48
2022-09-07T23:43:27.843Z,1.08
2022-09-07T23:45:54.987Z,1.10
2022-09-07T23:48:21.913Z,1.20
2022-09-07T23:50:48.433Z,1.50
2022-09-07T23:53:15.348Z,1.55
2022-09-07T23:55:42.582Z,1.20
2022-09-07T23:58:09.737Z,1.10
